sensor_id;sensor_type;location;lat;lon;timestamp;pressure;altitude;pressure_sealevel;temperature;humidity
47716;BME280;33476;50.984;3.538;2023-06-01T00:00:41;102336.97;;;17.85;61.69
47716;BME280;33476;50.984;3.538;2023-06-01T00:03:07;102336.19;;;17.83;61.72
47716;BME280;33476;50.984;3.538;2023-06-01T00:05:32;102335.25;;;17.84;61.79
47716;BME280;33476;50.984;3.538;2023-06-01T00:07:57;102348.66;;;17.81;61.87
47716;BME280;33476;50.984;3.538;2023-06-01T00:10:23;102331.94;;;17.80;61.87
47716;BME280;33476;50.984;3.538;2023-06-01T00:12:48;102341.72;;;17.78;62.01
47716;BME280;33476;50.984;3.538;2023-06-01T00:15:13;102334.13;;;17.72;62.03
47716;BME280;33476;50.984;3.538;2023-06-01T00:17:39;102330.66;;;17.72;62.13
47716;BME280;33476;50.984;3.538;2023-06-01T00:20:05;102328.91;;;17.71;62.16
47716;BME280;33476;50.984;3.538;2023-06-01T00:22:34;102326.50;;;17.66;62.29
47716;BME280;33476;50.984;3.538;2023-06-01T00:25:05;102332.81;;;17.63;62.21
47716;BME280;33476;50.984;3.538;2023-06-01T00:27:31;102327.53;;;17.63;62.15
47716;BME280;33476;50.984;3.538;2023-06-01T00:29:56;102330.19;;;17.63;61.93
47716;BME280;33476;50.984;3.538;2023-06-01T00:32:21;102327.69;;;17.60;62.13
47716;BME280;33476;50.984;3.538;2023-06-01T00:34:47;102329.47;;;17.60;61.96
47716;BME280;33476;50.984;3.538;2023-06-01T00:37:12;102331.44;;;17.56;62.10
47716;BME280;33476;50.984;3.538;2023-06-01T00:39:37;102330.59;;;17.56;62.01
47716;BME280;33476;50.984;3.538;2023-06-01T00:42:03;102329.72;;;17.55;62.00
47716;BME280;33476;50.984;3.538;2023-06-01T00:44:29;102328.94;;;17.53;62.07
47716;BME280;33476;50.984;3.538;2023-06-01T00:46:54;102333.44;;;17.51;62.08
47716;BME280;33476;50.984;3.538;2023-06-01T00:49:20;102333.63;;;17.48;62.20
47716;BME280;33476;50.984;3.538;2023-06-01T00:51:45;102327.63;;;17.45;62.23
47716;BME280;33476;50.984;3.538;2023-06-01T00:54:10;102329.59;;;17.41;62.18
47716;BME280;33476;50.984;3.538;2023-06-01T00:56:37;102337.53;;;17.41;62.31
47716;BME280;33476;50.984;3.538;2023-06-01T00:59:02;102334.88;;;17.41;62.28
47716;BME280;33476;50.984;3.538;2023-06-01T01:01:28;102333.19;;;17.40;62.24
47716;BME280;33476;50.984;3.538;2023-06-01T01:03:53;102327.03;;;17.39;61.91
47716;BME280;33476;50.984;3.538;2023-06-01T01:06:59;102322.16;;;17.32;62.16
47716;BME280;33476;50.984;3.538;2023-06-01T01:09:54;102327.53;;;17.30;62.03
47716;BME280;33476;50.984;3.538;2023-06-01T01:12:45;102331.16;;;17.28;62.25
47716;BME280;33476;50.984;3.538;2023-06-01T01:18:04;102330.41;;;17.26;62.22
47716;BME280;33476;50.984;3.538;2023-06-01T01:20:41;102331.34;;;17.25;62.03
47716;BME280;33476;50.984;3.538;2023-06-01T01:26:14;102328.84;;;17.22;62.20
47716;BME280;33476;50.984;3.538;2023-06-01T01:31:10;102341.91;;;17.25;61.83
47716;BME280;33476;50.984;3.538;2023-06-01T01:33:37;102335.94;;;17.21;61.99
47716;BME280;33476;50.984;3.538;2023-06-01T01:36:04;102338.72;;;17.18;62.01
47716;BME280;33476;50.984;3.538;2023-06-01T01:38:33;102338.13;;;17.13;62.03
47716;BME280;33476;50.984;3.538;2023-06-01T01:40:59;102337.19;;;17.14;61.92
47716;BME280;33476;50.984;3.538;2023-06-01T01:43:24;102336.47;;;17.10;62.01
47716;BME280;33476;50.984;3.538;2023-06-01T01:45:57;102340.28;;;17.05;62.13
47716;BME280;33476;50.984;3.538;2023-06-01T01:48:32;102336.84;;;17.03;61.99
47716;BME280;33476;50.984;3.538;2023-06-01T01:51:04;102338.09;;;16.96;62.21
47716;BME280;33476;50.984;3.538;2023-06-01T01:53:32;102340.81;;;16.94;62.21
47716;BME280;33476;50.984;3.538;2023-06-01T01:56:01;102342.69;;;16.92;62.22
47716;BME280;33476;50.984;3.538;2023-06-01T01:58:27;102338.16;;;16.94;62.03
47716;BME280;33476;50.984;3.538;2023-06-01T02:00:53;102330.25;;;16.94;61.89
47716;BME280;33476;50.984;3.538;2023-06-01T02:03:19;102334.75;;;16.92;62.08
47716;BME280;33476;50.984;3.538;2023-06-01T02:05:45;102332.34;;;16.88;62.17
47716;BME280;33476;50.984;3.538;2023-06-01T02:08:10;102329.00;;;16.84;62.36
47716;BME280;33476;50.984;3.538;2023-06-01T02:10:36;102335.44;;;16.78;62.45
47716;BME280;33476;50.984;3.538;2023-06-01T02:13:02;102339.09;;;16.76;62.51
47716;BME280;33476;50.984;3.538;2023-06-01T02:15:28;102339.88;;;16.78;62.17
47716;BME280;33476;50.984;3.538;2023-06-01T02:17:53;102339.00;;;16.77;61.90
47716;BME280;33476;50.984;3.538;2023-06-01T02:20:21;102341.75;;;16.76;62.03
47716;BME280;33476;50.984;3.538;2023-06-01T02:22:47;102335.78;;;16.72;62.16
47716;BME280;33476;50.984;3.538;2023-06-01T02:25:12;102336.75;;;16.70;62.30
47716;BME280;33476;50.984;3.538;2023-06-01T02:27:37;102327.19;;;16.67;62.35
47716;BME280;33476;50.984;3.538;2023-06-01T02:30:03;102331.06;;;16.60;62.29
47716;BME280;33476;50.984;3.538;2023-06-01T02:32:31;102332.84;;;16.60;62.34
47716;BME280;33476;50.984;3.538;2023-06-01T02:34:57;102332.16;;;16.56;62.40
47716;BME280;33476;50.984;3.538;2023-06-01T02:37:23;102329.56;;;16.54;62.36
47716;BME280;33476;50.984;3.538;2023-06-01T02:39:48;102327.00;;;16.53;62.33
47716;BME280;33476;50.984;3.538;2023-06-01T02:42:13;102334.13;;;16.51;62.45
47716;BME280;33476;50.984;3.538;2023-06-01T02:44:39;102334.34;;;16.46;62.41
47716;BME280;33476;50.984;3.538;2023-06-01T02:47:04;102330.09;;;16.44;62.51
47716;BME280;33476;50.984;3.538;2023-06-01T02:49:30;102335.25;;;16.47;62.47
47716;BME280;33476;50.984;3.538;2023-06-01T02:51:56;102321.41;;;16.42;62.49
47716;BME280;33476;50.984;3.538;2023-06-01T02:54:21;102325.81;;;16.41;62.52
47716;BME280;33476;50.984;3.538;2023-06-01T02:56:46;102329.31;;;16.42;62.48
47716;BME280;33476;50.984;3.538;2023-06-01T02:59:12;102332.81;;;16.42;62.28
47716;BME280;33476;50.984;3.538;2023-06-01T03:01:37;102329.41;;;16.40;62.33
47716;BME280;33476;50.984;3.538;2023-06-01T03:04:03;102326.97;;;16.36;62.42
47716;BME280;33476;50.984;3.538;2023-06-01T03:06:32;102325.91;;;16.40;62.17
47716;BME280;33476;50.984;3.538;2023-06-01T03:09:03;102329.47;;;16.39;62.11
47716;BME280;33476;50.984;3.538;2023-06-01T03:11:28;102320.84;;;16.35;62.41
47716;BME280;33476;50.984;3.538;2023-06-01T03:13:53;102323.56;;;16.34;62.55
47716;BME280;33476;50.984;3.538;2023-06-01T03:16:19;102329.84;;;16.31;62.58
47716;BME280;33476;50.984;3.538;2023-06-01T03:18:44;102320.06;;;16.33;62.74
47716;BME280;33476;50.984;3.538;2023-06-01T03:21:10;102334.19;;;16.32;62.53
47716;BME280;33476;50.984;3.538;2023-06-01T03:23:36;102331.63;;;16.31;62.66
47716;BME280;33476;50.984;3.538;2023-06-01T03:26:02;102328.09;;;16.30;62.90
47716;BME280;33476;50.984;3.538;2023-06-01T03:28:29;102333.25;;;16.33;62.74
47716;BME280;33476;50.984;3.538;2023-06-01T03:30:54;102330.69;;;16.32;62.83
47716;BME280;33476;50.984;3.538;2023-06-01T03:33:21;102324.78;;;16.26;63.06
47716;BME280;33476;50.984;3.538;2023-06-01T03:35:46;102324.56;;;16.31;63.06
47716;BME280;33476;50.984;3.538;2023-06-01T03:38:11;102324.69;;;16.28;63.21
47716;BME280;33476;50.984;3.538;2023-06-01T03:40:37;102326.34;;;16.31;63.15
47716;BME280;33476;50.984;3.538;2023-06-01T03:43:02;102324.50;;;16.33;62.94
47716;BME280;33476;50.984;3.538;2023-06-01T03:45:28;102335.88;;;16.33;62.98
47716;BME280;33476;50.984;3.538;2023-06-01T03:47:53;102334.38;;;16.27;63.12
47716;BME280;33476;50.984;3.538;2023-06-01T03:50:19;102329.91;;;16.29;63.23
47716;BME280;33476;50.984;3.538;2023-06-01T03:52:44;102332.59;;;16.28;63.24
47716;BME280;33476;50.984;3.538;2023-06-01T03:55:10;102331.84;;;16.26;63.44
47716;BME280;33476;50.984;3.538;2023-06-01T03:57:38;102331.75;;;16.27;63.58
47716;BME280;33476;50.984;3.538;2023-06-01T04:00:08;102336.19;;;16.27;63.69
47716;BME280;33476;50.984;3.538;2023-06-01T04:03:03;102343.94;;;16.30;63.41
47716;BME280;33476;50.984;3.538;2023-06-01T04:05:32;102340.31;;;16.33;63.08
47716;BME280;33476;50.984;3.538;2023-06-01T04:07:57;102352.31;;;16.38;63.24
47716;BME280;33476;50.984;3.538;2023-06-01T04:10:22;102342.94;;;16.33;63.35
47716;BME280;33476;50.984;3.538;2023-06-01T04:12:49;102337.75;;;16.31;63.46
47716;BME280;33476;50.984;3.538;2023-06-01T04:15:16;102345.44;;;16.36;63.45
47716;BME280;33476;50.984;3.538;2023-06-01T04:17:42;102355.84;;;16.39;63.46
47716;BME280;33476;50.984;3.538;2023-06-01T04:20:12;102349.16;;;16.32;63.59
47716;BME280;33476;50.984;3.538;2023-06-01T04:22:38;102345.13;;;16.42;63.39
47716;BME280;33476;50.984;3.538;2023-06-01T04:25:06;102352.75;;;16.48;63.35
47716;BME280;33476;50.984;3.538;2023-06-01T04:27:36;102360.22;;;16.57;62.86
47716;BME280;33476;50.984;3.538;2023-06-01T04:30:06;102362.38;;;16.49;63.04
47716;BME280;33476;50.984;3.538;2023-06-01T04:32:35;102358.97;;;16.47;63.20
47716;BME280;33476;50.984;3.538;2023-06-01T04:35:06;102354.56;;;16.47;63.38
47716;BME280;33476;50.984;3.538;2023-06-01T04:37:38;102359.88;;;16.46;63.34
47716;BME280;33476;50.984;3.538;2023-06-01T04:40:05;102357.81;;;16.52;63.02
47716;BME280;33476;50.984;3.538;2023-06-01T04:42:35;102351.47;;;16.56;63.04
47716;BME280;33476;50.984;3.538;2023-06-01T04:45:03;102357.44;;;16.60;62.83
47716;BME280;33476;50.984;3.538;2023-06-01T04:47:33;102356.56;;;16.60;63.09
47716;BME280;33476;50.984;3.538;2023-06-01T04:50:05;102366.34;;;16.57;63.17
47716;BME280;33476;50.984;3.538;2023-06-01T04:52:31;102365.59;;;16.55;63.26
47716;BME280;33476;50.984;3.538;2023-06-01T04:54:56;102368.22;;;16.55;63.17
47716;BME280;33476;50.984;3.538;2023-06-01T04:57:22;102362.94;;;16.55;63.06
47716;BME280;33476;50.984;3.538;2023-06-01T04:59:48;102362.41;;;16.66;62.82
47716;BME280;33476;50.984;3.538;2023-06-01T05:02:13;102357.88;;;16.70;62.80
47716;BME280;33476;50.984;3.538;2023-06-01T05:04:39;102363.28;;;16.67;62.73
47716;BME280;33476;50.984;3.538;2023-06-01T05:07:05;102355.50;;;16.64;62.76
47716;BME280;33476;50.984;3.538;2023-06-01T05:09:30;102353.66;;;16.66;62.97
47716;BME280;33476;50.984;3.538;2023-06-01T05:11:56;102364.00;;;16.70;62.77
47716;BME280;33476;50.984;3.538;2023-06-01T05:14:21;102362.22;;;16.71;62.79
47716;BME280;33476;50.984;3.538;2023-06-01T05:16:46;102363.06;;;16.71;62.72
47716;BME280;33476;50.984;3.538;2023-06-01T05:19:14;102361.22;;;16.73;62.82
47716;BME280;33476;50.984;3.538;2023-06-01T05:21:42;102365.47;;;16.76;62.51
47716;BME280;33476;50.984;3.538;2023-06-01T05:24:07;102358.25;;;16.79;62.52
47716;BME280;33476;50.984;3.538;2023-06-01T05:26:33;102362.00;;;16.75;62.63
47716;BME280;33476;50.984;3.538;2023-06-01T05:28:58;102364.63;;;16.75;62.51
47716;BME280;33476;50.984;3.538;2023-06-01T05:31:23;102364.47;;;16.78;62.44
47716;BME280;33476;50.984;3.538;2023-06-01T05:33:49;102367.09;;;16.78;62.36
47716;BME280;33476;50.984;3.538;2023-06-01T05:36:16;102366.16;;;16.79;62.24
47716;BME280;33476;50.984;3.538;2023-06-01T05:38:41;102368.75;;;16.81;62.19
47716;BME280;33476;50.984;3.538;2023-06-01T05:41:06;102363.09;;;16.89;62.04
47716;BME280;33476;50.984;3.538;2023-06-01T05:43:35;102365.78;;;16.87;62.14
47716;BME280;33476;50.984;3.538;2023-06-01T05:46:00;102362.16;;;16.90;61.92
47716;BME280;33476;50.984;3.538;2023-06-01T05:48:25;102358.69;;;16.89;61.94
47716;BME280;33476;50.984;3.538;2023-06-01T05:50:51;102361.38;;;16.88;61.98
47716;BME280;33476;50.984;3.538;2023-06-01T05:53:16;102358.59;;;16.91;61.95
47716;BME280;33476;50.984;3.538;2023-06-01T05:55:41;102363.03;;;16.90;61.66
47716;BME280;33476;50.984;3.538;2023-06-01T05:58:07;102367.53;;;16.88;61.80
47716;BME280;33476;50.984;3.538;2023-06-01T06:00:32;102362.09;;;16.91;61.50
47716;BME280;33476;50.984;3.538;2023-06-01T06:02:59;102361.06;;;16.94;61.55
47716;BME280;33476;50.984;3.538;2023-06-01T06:05:25;102359.38;;;16.93;61.54
47716;BME280;33476;50.984;3.538;2023-06-01T06:07:50;102361.00;;;16.95;61.54
47716;BME280;33476;50.984;3.538;2023-06-01T06:10:15;102362.56;;;16.99;61.48
47716;BME280;33476;50.984;3.538;2023-06-01T06:12:41;102361.53;;;17.02;61.13
47716;BME280;33476;50.984;3.538;2023-06-01T06:15:07;102365.13;;;17.01;61.20
47716;BME280;33476;50.984;3.538;2023-06-01T06:17:32;102368.59;;;17.01;61.31
47716;BME280;33476;50.984;3.538;2023-06-01T06:19:57;102357.84;;;17.06;61.24
47716;BME280;33476;50.984;3.538;2023-06-01T06:22:23;102362.31;;;17.04;61.27
47716;BME280;33476;50.984;3.538;2023-06-01T06:24:48;102368.22;;;17.09;61.38
47716;BME280;33476;50.984;3.538;2023-06-01T06:27:14;102368.78;;;17.16;61.22
47716;BME280;33476;50.984;3.538;2023-06-01T06:29:40;102365.75;;;17.23;61.04
47716;BME280;33476;50.984;3.538;2023-06-01T06:32:06;102363.09;;;17.23;61.11
47716;BME280;33476;50.984;3.538;2023-06-01T06:34:31;102367.38;;;17.26;61.13
47716;BME280;33476;50.984;3.538;2023-06-01T06:37:03;102368.03;;;17.29;60.82
47716;BME280;33476;50.984;3.538;2023-06-01T06:39:28;102368.84;;;17.31;60.80
47716;BME280;33476;50.984;3.538;2023-06-01T06:41:53;102366.75;;;17.38;60.64
47716;BME280;33476;50.984;3.538;2023-06-01T06:44:19;102365.63;;;17.42;60.60
47716;BME280;33476;50.984;3.538;2023-06-01T06:46:44;102372.53;;;17.45;60.20
47716;BME280;33476;50.984;3.538;2023-06-01T06:49:10;102378.00;;;17.41;60.54
47716;BME280;33476;50.984;3.538;2023-06-01T06:51:37;102368.97;;;17.46;60.43
47716;BME280;33476;50.984;3.538;2023-06-01T06:54:02;102371.19;;;17.53;60.10
47716;BME280;33476;50.984;3.538;2023-06-01T06:56:30;102367.41;;;17.59;60.01
47716;BME280;33476;50.984;3.538;2023-06-01T06:58:56;102365.44;;;17.62;59.95
47716;BME280;33476;50.984;3.538;2023-06-01T07:01:21;102364.25;;;17.68;59.74
47716;BME280;33476;50.984;3.538;2023-06-01T07:03:46;102362.28;;;17.73;59.67
47716;BME280;33476;50.984;3.538;2023-06-01T07:06:12;102363.78;;;17.77;59.55
47716;BME280;33476;50.984;3.538;2023-06-01T07:08:37;102372.34;;;17.82;59.41
47716;BME280;33476;50.984;3.538;2023-06-01T07:11:04;102372.69;;;17.92;59.33
47716;BME280;33476;50.984;3.538;2023-06-01T07:13:30;102365.88;;;18.04;58.99
47716;BME280;33476;50.984;3.538;2023-06-01T07:15:55;102367.09;;;18.14;58.67
47716;BME280;33476;50.984;3.538;2023-06-01T07:18:21;102371.69;;;18.26;58.46
47716;BME280;33476;50.984;3.538;2023-06-01T07:20:46;102369.25;;;18.39;58.09
47716;BME280;33476;50.984;3.538;2023-06-01T07:23:11;102367.00;;;18.47;58.39
47716;BME280;33476;50.984;3.538;2023-06-01T07:25:41;102374.84;;;18.64;58.28
47716;BME280;33476;50.984;3.538;2023-06-01T07:28:06;102371.16;;;18.83;57.98
47716;BME280;33476;50.984;3.538;2023-06-01T07:30:34;102367.88;;;18.93;57.60
47716;BME280;33476;50.984;3.538;2023-06-01T07:32:59;102369.97;;;19.02;57.53
47716;BME280;33476;50.984;3.538;2023-06-01T07:35:25;102371.53;;;19.06;56.92
47716;BME280;33476;50.984;3.538;2023-06-01T07:37:50;102374.06;;;19.08;56.60
47716;BME280;33476;50.984;3.538;2023-06-01T07:40:16;102378.66;;;19.20;56.42
47716;BME280;33476;50.984;3.538;2023-06-01T07:42:41;102383.47;;;19.28;55.93
47716;BME280;33476;50.984;3.538;2023-06-01T07:45:07;102385.66;;;19.35;55.28
47716;BME280;33476;50.984;3.538;2023-06-01T07:47:34;102391.66;;;19.39;55.04
47716;BME280;33476;50.984;3.538;2023-06-01T07:49:59;102383.50;;;19.42;54.71
47716;BME280;33476;50.984;3.538;2023-06-01T07:52:24;102375.09;;;19.50;54.68
47716;BME280;33476;50.984;3.538;2023-06-01T07:54:50;102378.34;;;19.55;54.20
47716;BME280;33476;50.984;3.538;2023-06-01T07:57:16;102374.66;;;19.57;53.97
47716;BME280;33476;50.984;3.538;2023-06-01T07:59:42;102382.16;;;19.65;54.17
47716;BME280;33476;50.984;3.538;2023-06-01T08:02:07;102370.03;;;19.75;53.78
47716;BME280;33476;50.984;3.538;2023-06-01T08:04:33;102365.31;;;19.80;53.37
47716;BME280;33476;50.984;3.538;2023-06-01T08:06:58;102363.13;;;19.87;53.00
47716;BME280;33476;50.984;3.538;2023-06-01T08:09:24;102356.09;;;20.00;53.13
47716;BME280;33476;50.984;3.538;2023-06-01T08:11:50;102358.06;;;20.11;52.25
47716;BME280;33476;50.984;3.538;2023-06-01T08:14:16;102366.47;;;20.17;52.32
47716;BME280;33476;50.984;3.538;2023-06-01T08:16:42;102358.59;;;20.30;51.87
47716;BME280;33476;50.984;3.538;2023-06-01T08:19:08;102368.34;;;20.44;52.00
47716;BME280;33476;50.984;3.538;2023-06-01T08:21:34;102357.88;;;20.55;51.56
47716;BME280;33476;50.984;3.538;2023-06-01T08:24:00;102367.31;;;20.59;51.43
47716;BME280;33476;50.984;3.538;2023-06-01T08:26:27;102368.00;;;20.63;51.25
47716;BME280;33476;50.984;3.538;2023-06-01T08:28:52;102372.03;;;20.68;50.62
47716;BME280;33476;50.984;3.538;2023-06-01T08:31:21;102364.84;;;20.70;51.01
47716;BME280;33476;50.984;3.538;2023-06-01T08:33:48;102364.00;;;20.83;51.23
47716;BME280;33476;50.984;3.538;2023-06-01T08:36:14;102366.03;;;20.92;51.02
47716;BME280;33476;50.984;3.538;2023-06-01T08:38:40;102361.16;;;20.98;51.08
47716;BME280;33476;50.984;3.538;2023-06-01T08:44:03;102364.81;;;21.23;50.08
47716;BME280;33476;50.984;3.538;2023-06-01T08:46:32;102366.13;;;21.30;49.77
47716;BME280;33476;50.984;3.538;2023-06-01T08:48:59;102373.69;;;21.36;49.56
47716;BME280;33476;50.984;3.538;2023-06-01T08:51:26;102367.94;;;21.42;49.34
47716;BME280;33476;50.984;3.538;2023-06-01T08:53:53;102364.88;;;21.48;49.26
47716;BME280;33476;50.984;3.538;2023-06-01T08:56:19;102363.16;;;21.60;49.09
47716;BME280;33476;50.984;3.538;2023-06-01T08:58:45;102354.75;;;21.66;48.74
47716;BME280;33476;50.984;3.538;2023-06-01T09:01:17;102344.44;;;21.62;48.02
47716;BME280;33476;50.984;3.538;2023-06-01T09:03:50;102351.22;;;21.66;48.02
47716;BME280;33476;50.984;3.538;2023-06-01T09:06:16;102348.25;;;21.70;48.31
47716;BME280;33476;50.984;3.538;2023-06-01T09:08:42;102349.72;;;21.74;48.18
47716;BME280;33476;50.984;3.538;2023-06-01T09:11:09;102348.34;;;21.81;48.33
47716;BME280;33476;50.984;3.538;2023-06-01T09:13:36;102346.84;;;21.90;48.05
47716;BME280;33476;50.984;3.538;2023-06-01T09:16:02;102349.06;;;21.96;48.49
47716;BME280;33476;50.984;3.538;2023-06-01T09:18:27;102359.59;;;21.98;47.92
47716;BME280;33476;50.984;3.538;2023-06-01T09:20:53;102346.94;;;22.01;47.69
47716;BME280;33476;50.984;3.538;2023-06-01T09:23:26;102346.59;;;22.06;47.73
47716;BME280;33476;50.984;3.538;2023-06-01T09:26:04;102331.69;;;22.16;47.29
47716;BME280;33476;50.984;3.538;2023-06-01T09:31:42;102339.19;;;22.35;46.25
47716;BME280;33476;50.984;3.538;2023-06-01T09:34:11;102337.75;;;22.42;45.93
47716;BME280;33476;50.984;3.538;2023-06-01T09:36:37;102326.25;;;22.41;45.90
47716;BME280;33476;50.984;3.538;2023-06-01T09:39:13;102336.31;;;22.49;46.06
47716;BME280;33476;50.984;3.538;2023-06-01T09:44:26;102330.38;;;22.69;45.44
47716;BME280;33476;50.984;3.538;2023-06-01T09:47:03;102326.50;;;22.74;45.07
47716;BME280;33476;50.984;3.538;2023-06-01T09:49:31;102327.50;;;22.84;45.51
47716;BME280;33476;50.984;3.538;2023-06-01T09:57:01;102331.59;;;23.01;44.03
47716;BME280;33476;50.984;3.538;2023-06-01T09:59:28;102330.47;;;22.92;44.67
47716;BME280;33476;50.984;3.538;2023-06-01T10:01:56;102334.94;;;22.91;44.89
47716;BME280;33476;50.984;3.538;2023-06-01T10:04:24;102331.09;;;22.95;44.18
47716;BME280;33476;50.984;3.538;2023-06-01T10:06:52;102327.47;;;23.08;43.87
47716;BME280;33476;50.984;3.538;2023-06-01T10:09:18;102330.78;;;23.22;43.85
47716;BME280;33476;50.984;3.538;2023-06-01T10:11:50;102328.22;;;23.21;43.24
47716;BME280;33476;50.984;3.538;2023-06-01T10:14:18;102333.81;;;23.18;42.61
47716;BME280;33476;50.984;3.538;2023-06-01T10:16:44;102311.38;;;23.20;43.46
47716;BME280;33476;50.984;3.538;2023-06-01T10:19:11;102322.31;;;23.29;43.57
47716;BME280;33476;50.984;3.538;2023-06-01T10:21:37;102311.53;;;23.30;42.92
47716;BME280;33476;50.984;3.538;2023-06-01T10:24:05;102315.28;;;23.39;42.57
47716;BME280;33476;50.984;3.538;2023-06-01T10:26:38;102312.50;;;23.29;42.83
47716;BME280;33476;50.984;3.538;2023-06-01T10:29:07;102313.84;;;23.35;42.45
47716;BME280;33476;50.984;3.538;2023-06-01T10:31:41;102317.69;;;23.31;42.60
47716;BME280;33476;50.984;3.538;2023-06-01T10:34:08;102313.09;;;23.44;42.49
47716;BME280;33476;50.984;3.538;2023-06-01T10:39:34;102301.00;;;23.73;41.39
47716;BME280;33476;50.984;3.538;2023-06-01T10:54:49;102288.31;;;24.09;41.30
47716;BME280;33476;50.984;3.538;2023-06-01T10:59:44;102289.38;;;24.18;41.88
47716;BME280;33476;50.984;3.538;2023-06-01T11:02:09;102290.69;;;24.23;41.46
47716;BME280;33476;50.984;3.538;2023-06-01T11:04:36;102289.00;;;24.22;41.25
47716;BME280;33476;50.984;3.538;2023-06-01T11:07:37;102288.53;;;24.17;41.67
47716;BME280;33476;50.984;3.538;2023-06-01T11:10:03;102286.78;;;24.27;41.04
47716;BME280;33476;50.984;3.538;2023-06-01T11:15:36;102289.56;;;24.37;40.81
47716;BME280;33476;50.984;3.538;2023-06-01T11:21:34;102284.28;;;24.58;40.02
47716;BME280;33476;50.984;3.538;2023-06-01T11:24:06;102284.91;;;24.50;40.23
47716;BME280;33476;50.984;3.538;2023-06-01T11:26:38;102279.09;;;24.45;38.91
47716;BME280;33476;50.984;3.538;2023-06-01T11:29:08;102280.22;;;24.43;39.95
47716;BME280;33476;50.984;3.538;2023-06-01T11:31:39;102277.16;;;24.47;39.17
47716;BME280;33476;50.984;3.538;2023-06-01T11:34:06;102262.22;;;24.45;38.69
47716;BME280;33476;50.984;3.538;2023-06-01T11:36:36;102276.63;;;24.53;39.39
47716;BME280;33476;50.984;3.538;2023-06-01T11:39:02;102274.63;;;24.67;39.51
47716;BME280;33476;50.984;3.538;2023-06-01T11:41:27;102270.25;;;24.65;39.42
47716;BME280;33476;50.984;3.538;2023-06-01T11:43:56;102259.56;;;24.65;39.56
47716;BME280;33476;50.984;3.538;2023-06-01T11:46:22;102261.84;;;24.70;40.13
47716;BME280;33476;50.984;3.538;2023-06-01T11:49:05;102269.09;;;24.79;40.16
47716;BME280;33476;50.984;3.538;2023-06-01T11:51:37;102258.38;;;24.79;39.39
47716;BME280;33476;50.984;3.538;2023-06-01T11:54:04;102267.53;;;24.77;40.28
47716;BME280;33476;50.984;3.538;2023-06-01T11:56:34;102271.47;;;24.82;39.75
47716;BME280;33476;50.984;3.538;2023-06-01T11:59:03;102264.53;;;24.91;39.61
47716;BME280;33476;50.984;3.538;2023-06-01T12:01:34;102270.91;;;25.00;39.98
47716;BME280;33476;50.984;3.538;2023-06-01T12:04:02;102266.72;;;25.07;40.33
47716;BME280;33476;50.984;3.538;2023-06-01T12:06:28;102262.03;;;25.20;40.37
47716;BME280;33476;50.984;3.538;2023-06-01T12:08:56;102260.78;;;25.24;40.40
47716;BME280;33476;50.984;3.538;2023-06-01T12:11:25;102265.22;;;25.14;40.34
47716;BME280;33476;50.984;3.538;2023-06-01T12:13:54;102264.38;;;25.13;40.37
47716;BME280;33476;50.984;3.538;2023-06-01T12:16:23;102259.44;;;25.09;39.72
47716;BME280;33476;50.984;3.538;2023-06-01T12:18:48;102256.34;;;25.13;40.01
47716;BME280;33476;50.984;3.538;2023-06-01T12:21:14;102269.34;;;25.18;39.19
47716;BME280;33476;50.984;3.538;2023-06-01T12:23:42;102263.41;;;25.14;39.58
47716;BME280;33476;50.984;3.538;2023-06-01T12:26:07;102258.81;;;25.26;39.52
47716;BME280;33476;50.984;3.538;2023-06-01T12:28:53;102267.22;;;25.21;39.56
47716;BME280;33476;50.984;3.538;2023-06-01T12:31:20;102258.53;;;25.29;39.34
47716;BME280;33476;50.984;3.538;2023-06-01T12:33:47;102260.66;;;25.26;39.40
47716;BME280;33476;50.984;3.538;2023-06-01T12:36:33;102262.72;;;25.22;39.33
47716;BME280;33476;50.984;3.538;2023-06-01T12:38:59;102264.84;;;25.18;38.85
47716;BME280;33476;50.984;3.538;2023-06-01T12:41:26;102259.34;;;25.20;39.36
47716;BME280;33476;50.984;3.538;2023-06-01T12:43:51;102264.59;;;25.31;39.33
47716;BME280;33476;50.984;3.538;2023-06-01T12:46:29;102258.84;;;25.36;38.85
47716;BME280;33476;50.984;3.538;2023-06-01T12:49:17;102260.81;;;25.34;39.06
47716;BME280;33476;50.984;3.538;2023-06-01T12:51:43;102258.00;;;25.35;39.14
47716;BME280;33476;50.984;3.538;2023-06-01T12:54:09;102264.19;;;25.36;39.51
47716;BME280;33476;50.984;3.538;2023-06-01T12:56:34;102253.81;;;25.42;39.82
47716;BME280;33476;50.984;3.538;2023-06-01T12:58:59;102261.97;;;25.41;39.80
47716;BME280;33476;50.984;3.538;2023-06-01T13:01:25;102258.16;;;25.34;39.68
47716;BME280;33476;50.984;3.538;2023-06-01T13:03:50;102263.47;;;25.24;40.32
47716;BME280;33476;50.984;3.538;2023-06-01T13:06:18;102266.38;;;25.21;40.42
47716;BME280;33476;50.984;3.538;2023-06-01T13:08:44;102260.47;;;25.17;40.58
47716;BME280;33476;50.984;3.538;2023-06-01T13:11:09;102263.66;;;25.11;40.74
47716;BME280;33476;50.984;3.538;2023-06-01T13:13:35;102257.34;;;25.12;40.88
47716;BME280;33476;50.984;3.538;2023-06-01T13:16:00;102257.78;;;25.17;40.98
47716;BME280;33476;50.984;3.538;2023-06-01T13:18:26;102268.06;;;25.22;40.80
47716;BME280;33476;50.984;3.538;2023-06-01T13:20:52;102262.16;;;25.18;40.56
47716;BME280;33476;50.984;3.538;2023-06-01T13:23:17;102269.19;;;25.19;40.67
47716;BME280;33476;50.984;3.538;2023-06-01T13:25:43;102264.97;;;25.17;40.70
47716;BME280;33476;50.984;3.538;2023-06-01T13:28:09;102266.47;;;25.10;40.50
47716;BME280;33476;50.984;3.538;2023-06-01T13:30:35;102256.56;;;25.01;40.87
47716;BME280;33476;50.984;3.538;2023-06-01T13:33:01;102260.22;;;25.00;40.85
47716;BME280;33476;50.984;3.538;2023-06-01T13:35:26;102255.13;;;24.97;41.00
47716;BME280;33476;50.984;3.538;2023-06-01T13:37:52;102260.91;;;25.02;40.94